Cold Springs, California
Current Conditions -  °F | °C
As of 10:55 AM on Friday 24 Oct 2014 (Local Time) from KO22 Reporting Station
Clear Clear  
Wind Chill: 73°   Ceiling: Unl
Heat Index: 73°   Visibility: 10mi
Dew Point: 34°   Wind: 7mph
Humidity: 23%   Direction: 180°S
Pressure: 30"   Gusts: NA
Location:  38.2093°N, 119.934°W
Report Text: KO22 241755Z AUTO 18006KT 10SM CLR 23/01 A3000 RMK AO1
Loading
Personal Weather Stations






























Interactive Weather Map
Tropical Storm Tracking
New forecast layout! Learn more

10-Day Weather Forecast

Advertisements
Track Severe Weather on mobile